Time;durP1;ratioP1;P1;durP2;ratioP2;P2;SDS_P1;SDS_P2;PMS_P1;PMS_P2;Temp;Humidity;BMP_temperature;BMP_pressure;BME280_temperature;BME280_humidity;BME280_pressure;Samples;Min_cycle;Max_cycle;Signal;HPM_P1;HPM_P2
2022/01/25 00:25:10;;;;;;;39.92;15.35;;;-1.30;99.90;;;;;;4948157;29;20476;-62
2022/01/25 00:27:49;;;;;;;38.95;15.68;;;-1.40;99.90;;;;;;4949207;29;20027;-63
2022/01/25 00:32:46;;;;;;;44.20;15.98;;;-1.40;99.90;;;;;;4949412;28;20039;-63
2022/01/25 00:35:12;;;;;;;40.75;15.32;;;-1.40;99.90;;;;;;4950177;28;20050;-63
2022/01/25 00:37:38;;;;;;;39.72;14.95;;;-1.40;99.90;;;;;;4950192;28;20453;-63
2022/01/25 00:40:04;;;;;;;40.00;14.98;;;-1.50;99.90;;;;;;4950376;28;20031;-63
2022/01/25 00:42:30;;;;;;;41.40;15.13;;;-1.50;99.90;;;;;;4950590;28;20031;-64
2022/01/25 00:44:56;;;;;;;44.75;15.88;;;-1.40;99.90;;;;;;4948173;28;20030;-64
2022/01/25 00:47:24;;;;;;;43.97;15.57;;;-1.40;99.90;;;;;;4951023;28;20384;-63
2022/01/25 00:49:52;;;;;;;44.92;14.75;;;-1.50;99.90;;;;;;4949444;28;20039;-63
2022/01/25 00:54:44;;;;;;;41.50;15.45;;;-1.50;99.90;;;;;;4949558;28;20436;-64
2022/01/25 00:57:10;;;;;;;41.05;15.15;;;-1.60;99.90;;;;;;4950168;28;20069;-62
2022/01/25 00:59:36;;;;;;;42.55;16.02;;;-1.60;99.90;;;;;;4941717;28;20472;-63
2022/01/25 01:02:10;;;;;;;39.53;15.07;;;-1.60;99.90;;;;;;4950270;28;20090;-63
2022/01/25 01:04:36;;;;;;;38.50;15.07;;;-1.60;99.90;;;;;;4949215;28;20795;-63
2022/01/25 01:07:05;;;;;;;41.97;15.20;;;-1.60;99.90;;;;;;4951896;28;20113;-61
2022/01/25 01:09:34;;;;;;;41.30;14.30;;;-1.60;99.90;;;;;;4950926;28;20038;-62
2022/01/25 01:12:35;;;;;;;40.03;15.75;;;-1.70;99.90;;;;;;4949996;28;20278;-61
2022/01/25 01:14:58;;;;;;;45.25;14.80;;;-1.70;99.90;;;;;;4948480;28;20039;-63
2022/01/25 01:28:51;;;;;;;38.92;13.82;;;-1.70;99.90;;;;;;4954993;28;20427;-64
2022/01/25 01:31:37;;;;;;;40.13;13.90;;;-1.70;99.90;;;;;;4943126;29;20040;-63
2022/01/25 01:37:17;;;;;;;35.25;13.27;;;-1.70;99.90;;;;;;4948511;28;20059;-63
2022/01/25 01:47:50;;;;;;;37.97;14.57;;;-1.80;99.90;;;;;;4935703;28;20063;-63
2022/01/25 01:50:28;;;;;;;39.28;14.90;;;-1.90;99.90;;;;;;4949482;28;20523;-62
2022/01/25 01:52:55;;;;;;;41.38;14.40;;;-1.90;99.90;;;;;;4943165;28;20125;-63
2022/01/25 01:55:21;;;;;;;39.28;14.38;;;-1.90;99.90;;;;;;4949406;28;20094;-63
2022/01/25 01:57:49;;;;;;;39.92;14.35;;;-1.90;99.90;;;;;;4949145;28;20043;-63
2022/01/25 02:00:16;;;;;;;39.55;14.48;;;-1.90;99.90;;;;;;4947764;29;20055;-61
2022/01/25 02:02:43;;;;;;;37.42;14.18;;;-1.90;99.90;;;;;;4949133;28;20065;-62
2022/01/25 02:05:09;;;;;;;43.72;14.82;;;-1.80;99.90;;;;;;4949760;28;20074;-62
2022/01/25 02:07:34;;;;;;;42.15;14.50;;;-1.80;99.90;;;;;;4947879;28;20402;-62
2022/01/25 02:10:00;;;;;;;43.70;14.93;;;-1.90;99.90;;;;;;4942745;29;20031;-61
2022/01/25 02:12:27;;;;;;;40.40;15.65;;;-1.90;99.90;;;;;;4949938;28;20027;-62
2022/01/25 02:14:54;;;;;;;44.65;15.13;;;-2.00;99.90;;;;;;4940611;28;20568;-64
2022/01/25 02:23:21;;;;;;;42.65;15.00;;;-2.10;99.90;;;;;;4941300;28;20099;-64
2022/01/25 02:25:48;;;;;;;42.90;14.73;;;-2.00;99.90;;;;;;4949117;28;20039;-64
2022/01/25 02:28:15;;;;;;;40.97;14.80;;;-2.10;99.90;;;;;;4952101;28;20416;-63
2022/01/25 02:30:41;;;;;;;39.78;14.35;;;-2.10;99.90;;;;;;4952342;28;20023;-65
2022/01/25 02:33:07;;;;;;;46.00;15.43;;;-2.10;99.90;;;;;;4951467;29;20031;-63
2022/01/25 02:35:32;;;;;;;45.97;14.82;;;-2.10;99.90;;;;;;4950403;28;20127;-63
2022/01/25 02:37:58;;;;;;;41.67;14.77;;;-2.10;99.90;;;;;;4951723;28;20587;-63
2022/01/25 02:40:24;;;;;;;40.22;15.10;;;-2.10;99.90;;;;;;4952814;28;20027;-63
2022/01/25 02:42:51;;;;;;;40.40;14.73;;;-2.10;99.90;;;;;;4957660;28;20039;-62
2022/01/25 02:45:17;;;;;;;40.53;15.10;;;-2.20;99.90;;;;;;4952275;28;20062;-62
2022/01/25 02:50:28;;;;;;;44.90;15.07;;;-2.30;99.90;;;;;;4953458;28;20499;-62
2022/01/25 02:52:54;;;;;;;44.45;15.18;;;-2.30;99.90;;;;;;4956075;28;20058;-62
2022/01/25 02:55:19;;;;;;;46.70;16.45;;;-2.30;99.90;;;;;;4953073;28;20436;-63
2022/01/25 02:57:46;;;;;;;45.38;15.43;;;-2.30;99.90;;;;;;4952045;28;20328;-62
2022/01/25 03:00:12;;;;;;;41.95;15.77;;;-2.20;99.90;;;;;;4952228;28;20082;-64
2022/01/25 03:02:38;;;;;;;44.78;16.42;;;-2.10;99.90;;;;;;4950595;28;20042;-63
2022/01/25 03:05:05;;;;;;;43.20;14.63;;;-2.10;99.90;;;;;;4950296;28;20039;-63
2022/01/25 03:07:31;;;;;;;40.63;15.52;;;-2.30;99.90;;;;;;4952321;28;20400;-62
2022/01/25 03:09:58;;;;;;;39.85;14.45;;;-2.40;99.90;;;;;;4951664;28;20031;-62
2022/01/25 03:12:35;;;;;;;39.83;14.95;;;-2.40;99.90;;;;;;4951825;28;20039;-63
2022/01/25 03:17:47;;;;;;;41.33;15.48;;;-2.50;99.90;;;;;;4951721;28;20189;-63
2022/01/25 03:20:23;;;;;;;42.85;15.32;;;-2.50;99.90;;;;;;4950959;29;20031;-62
2022/01/25 03:25:22;;;;;;;40.95;15.27;;;-2.40;99.90;;;;;;4952532;28;20499;-62
2022/01/25 03:27:47;;;;;;;42.95;15.55;;;-2.50;99.90;;;;;;4951014;28;20456;-64
2022/01/25 03:30:13;;;;;;;41.83;14.38;;;-2.50;99.90;;;;;;4943856;28;20031;-63
2022/01/25 03:32:39;;;;;;;37.85;14.77;;;-2.50;99.90;;;;;;4956878;28;20125;-63
2022/01/25 03:35:05;;;;;;;44.78;14.77;;;-2.50;99.90;;;;;;4950946;28;20039;-63
2022/01/25 03:37:31;;;;;;;39.00;15.15;;;-2.50;99.90;;;;;;4950439;28;20038;-62
2022/01/25 03:39:56;;;;;;;40.97;14.15;;;-2.50;99.90;;;;;;4950992;28;20035;-64
2022/01/25 03:42:23;;;;;;;41.40;15.32;;;-2.50;99.90;;;;;;4951245;28;20121;-63
2022/01/25 03:44:49;;;;;;;44.88;15.82;;;-2.60;99.90;;;;;;4950592;28;20023;-63
2022/01/25 03:47:19;;;;;;;41.55;15.02;;;-2.60;99.90;;;;;;4959016;28;20038;-63
2022/01/25 03:49:52;;;;;;;44.28;14.68;;;-2.50;99.90;;;;;;4953192;28;20071;-65
2022/01/25 03:52:24;;;;;;;42.90;14.57;;;-2.50;99.90;;;;;;4958624;28;20042;-63
2022/01/25 03:54:50;;;;;;;41.00;15.40;;;-2.50;99.90;;;;;;4956920;28;20068;-60
2022/01/25 03:57:17;;;;;;;39.33;14.48;;;-2.50;99.90;;;;;;4951650;28;20103;-61
2022/01/25 03:59:43;;;;;;;40.45;14.32;;;-2.40;99.90;;;;;;4951205;28;20039;-65
2022/01/25 04:02:09;;;;;;;43.85;15.02;;;-2.50;99.90;;;;;;4948422;28;20129;-63
2022/01/25 04:04:35;;;;;;;39.83;14.77;;;-2.50;99.90;;;;;;4949612;28;20035;-62
2022/01/25 04:07:08;;;;;;;42.80;14.43;;;-2.50;99.90;;;;;;4950132;28;20035;-64
2022/01/25 04:09:34;;;;;;;45.53;15.45;;;-2.50;99.90;;;;;;4951360;28;20373;-62
2022/01/25 04:12:01;;;;;;;44.40;15.52;;;-2.50;99.90;;;;;;4949480;28;20435;-62
2022/01/25 04:14:28;;;;;;;46.30;15.07;;;-2.50;99.90;;;;;;4950577;28;20035;-63
2022/01/25 04:17:05;;;;;;;45.05;14.90;;;-2.50;99.90;;;;;;4949154;28;20035;-61
2022/01/25 04:19:40;;;;;;;40.58;14.30;;;-2.50;99.90;;;;;;4949688;28;20035;-64
2022/01/25 04:27:30;;;;;;;38.17;14.15;;;-2.60;99.90;;;;;;4949460;29;20039;-63
2022/01/25 04:29:56;;;;;;;46.72;15.27;;;-2.70;99.90;;;;;;4950008;28;20035;-62
2022/01/25 04:49:09;;;;;;;41.50;14.27;;;-2.90;99.90;;;;;;4943481;28;20077;-62
2022/01/25 04:59:17;;;;;;;44.15;14.20;;;-2.90;99.90;;;;;;4944454;29;20485;-62
2022/01/25 05:01:43;;;;;;;41.25;14.48;;;-2.90;99.90;;;;;;4950439;28;20031;-64
2022/01/25 05:04:15;;;;;;;39.22;13.90;;;-2.90;99.90;;;;;;4941497;29;20042;-66
2022/01/25 05:06:44;;;;;;;43.72;13.02;;;-2.90;99.90;;;;;;4950329;28;20028;-63
2022/01/25 05:09:25;;;;;;;36.50;13.73;;;-2.90;99.90;;;;;;4950146;28;20507;-64
2022/01/25 05:11:58;;;;;;;;;;;-2.90;99.90;;;;;;4950062;28;20042;-70
2022/01/25 05:14:36;;;;;;;38.38;13.40;;;-2.90;99.90;;;;;;4950046;28;20334;-68
2022/01/25 05:17:05;;;;;;;36.30;12.70;;;-2.90;99.90;;;;;;4948807;28;20035;-66
2022/01/25 05:24:49;;;;;;;35.50;13.73;;;-3.00;99.90;;;;;;4943912;28;20059;-69
2022/01/25 05:27:18;;;;;;;40.95;15.02;;;-3.10;99.90;;;;;;4949496;28;20031;-65
2022/01/25 05:29:45;;;;;;;41.55;14.07;;;-3.10;99.90;;;;;;4949108;28;20058;-65
2022/01/25 05:32:11;;;;;;;41.92;13.93;;;-3.10;99.90;;;;;;4949795;28;20614;-67
2022/01/25 05:34:37;;;;;;;36.50;13.95;;;-3.10;99.90;;;;;;4947056;28;20543;-65
2022/01/25 05:37:04;;;;;;;42.35;15.13;;;-3.10;99.90;;;;;;4948708;28;20080;-66
2022/01/25 05:39:34;;;;;;;44.17;15.13;;;-3.20;99.90;;;;;;4950325;28;20051;-64
2022/01/25 05:47:25;;;;;;;42.67;14.95;;;-3.20;99.90;;;;;;4946871;28;20127;-64
2022/01/25 05:49:50;;;;;;;40.13;14.05;;;-3.20;99.90;;;;;;4949981;28;20086;-69
2022/01/25 05:52:16;;;;;;;40.38;14.68;;;-3.20;99.90;;;;;;4948242;28;20043;-63
2022/01/25 05:54:48;;;;;;;38.10;13.80;;;-3.20;99.90;;;;;;4949938;28;20027;-65
2022/01/25 05:57:17;;;;;;;43.03;14.40;;;-3.20;99.90;;;;;;4955683;28;20480;-64
2022/01/25 05:59:44;;;;;;;39.35;12.52;;;-3.20;99.90;;;;;;4949589;28;20035;-64
2022/01/25 06:02:18;;;;;;;44.22;13.60;;;-3.20;99.90;;;;;;4956578;28;20031;-64
2022/01/25 06:04:45;;;;;;;45.13;13.68;;;-3.00;99.90;;;;;;4956752;28;20492;-67
2022/01/25 06:07:11;;;;;;;44.33;14.18;;;-3.00;99.90;;;;;;4952695;28;20292;-66
2022/01/25 06:09:48;;;;;;;45.50;13.95;;;-3.10;99.90;;;;;;4953074;28;20127;-71
2022/01/25 06:12:14;;;;;;;38.85;14.57;;;-3.10;99.90;;;;;;4951853;29;20097;-65
2022/01/25 06:14:40;;;;;;;42.72;14.52;;;-3.10;99.90;;;;;;4953592;28;20303;-67
2022/01/25 06:17:06;;;;;;;45.42;15.73;;;-3.10;99.90;;;;;;4952232;28;20476;-67
2022/01/25 06:19:32;;;;;;;48.13;16.23;;;-3.20;99.90;;;;;;4951636;28;20539;-69
2022/01/25 06:22:05;;;;;;;51.28;18.05;;;-3.20;99.90;;;;;;4952669;28;20027;-65
2022/01/25 06:24:31;;;;;;;56.35;18.83;;;-3.20;99.90;;;;;;4972195;28;20110;-67
2022/01/25 06:26:56;;;;;;;47.33;17.27;;;-3.20;99.90;;;;;;4952295;28;20620;-67
2022/01/25 06:29:22;;;;;;;51.60;18.20;;;-3.30;99.90;;;;;;4952934;29;20031;-64
2022/01/25 06:31:48;;;;;;;49.45;17.15;;;-3.40;99.90;;;;;;4952924;28;20050;-64
2022/01/25 06:34:15;;;;;;;50.25;18.08;;;-3.50;99.90;;;;;;4950097;28;20188;-63
2022/01/25 06:36:41;;;;;;;50.70;18.67;;;-3.50;99.90;;;;;;4952234;28;20058;-65
2022/01/25 06:39:07;;;;;;;45.92;16.17;;;-3.60;99.90;;;;;;4954312;28;20035;-63
2022/01/25 06:41:36;;;;;;;40.00;16.55;;;-3.60;99.90;;;;;;4958459;28;20094;-63
2022/01/25 06:44:02;;;;;;;41.65;15.32;;;-3.70;99.90;;;;;;4951237;28;20067;-64
2022/01/25 06:46:28;;;;;;;43.05;15.82;;;-3.60;99.90;;;;;;4951770;29;20376;-65
2022/01/25 06:48:53;;;;;;;44.92;15.40;;;-3.60;99.90;;;;;;4951653;28;20031;-68
2022/01/25 06:51:19;;;;;;;44.63;16.98;;;-3.60;99.90;;;;;;4952870;28;20031;-65
2022/01/25 06:53:45;;;;;;;44.72;17.38;;;-3.60;99.90;;;;;;4950805;28;20035;-65
2022/01/25 06:56:10;;;;;;;49.00;15.98;;;-3.70;99.90;;;;;;4950475;28;20400;-65
2022/01/25 06:58:36;;;;;;;45.05;17.10;;;-3.70;99.90;;;;;;4945883;28;20035;-64
2022/01/25 07:01:02;;;;;;;45.53;16.40;;;-3.60;99.90;;;;;;4951095;28;20027;-65
2022/01/25 07:03:28;;;;;;;46.85;15.35;;;-3.60;99.90;;;;;;4950217;28;20028;-63
2022/01/25 07:05:54;;;;;;;45.00;15.82;;;-3.50;99.90;;;;;;4951313;28;20035;-68
2022/01/25 07:08:19;;;;;;;44.13;14.80;;;-3.50;99.90;;;;;;4951195;28;20051;-66
2022/01/25 07:10:45;;;;;;;46.83;15.93;;;-3.50;99.90;;;;;;4953221;28;20098;-65
2022/01/25 07:13:11;;;;;;;42.63;15.65;;;-3.50;99.90;;;;;;4952948;28;20035;-64
2022/01/25 07:15:36;;;;;;;43.72;15.57;;;-3.50;99.90;;;;;;4956793;28;20047;-64
2022/01/25 07:18:02;;;;;;;46.47;15.52;;;-3.40;99.90;;;;;;4954938;28;20610;-64
2022/01/25 07:20:28;;;;;;;42.95;14.60;;;-3.40;99.90;;;;;;4951564;28;20469;-63
2022/01/25 07:22:54;;;;;;;44.03;14.75;;;-3.40;99.90;;;;;;4952339;28;20102;-71
2022/01/25 07:25:20;;;;;;;48.90;15.15;;;-3.40;99.90;;;;;;4950407;28;20051;-65
2022/01/25 07:27:45;;;;;;;38.65;13.98;;;-3.40;99.90;;;;;;4951570;28;20400;-64
2022/01/25 07:30:11;;;;;;;42.25;14.68;;;-3.30;99.90;;;;;;4952381;28;20039;-65
2022/01/25 07:32:37;;;;;;;44.03;14.02;;;-3.30;99.90;;;;;;4953938;28;20031;-69
2022/01/25 07:35:04;;;;;;;44.97;15.20;;;-3.20;99.90;;;;;;4950990;28;20070;-65
2022/01/25 07:37:30;;;;;;;46.78;15.90;;;-3.10;99.90;;;;;;4932249;28;20456;-67
2022/01/25 07:39:57;;;;;;;44.90;15.73;;;-3.10;99.90;;;;;;4951471;29;20133;-70
2022/01/25 07:42:23;;;;;;;41.75;16.20;;;-3.10;99.90;;;;;;4950107;28;20098;-67
2022/01/25 07:44:49;;;;;;;49.83;17.33;;;-3.00;99.90;;;;;;4950914;28;20043;-65
2022/01/25 07:47:15;;;;;;;46.67;15.85;;;-3.00;99.90;;;;;;4950892;28;20444;-66
2022/01/25 07:49:40;;;;;;;46.20;16.90;;;-3.00;99.90;;;;;;4951771;28;20039;-67
2022/01/25 07:52:07;;;;;;;45.60;15.45;;;-3.00;99.90;;;;;;4950044;28;20404;-67
2022/01/25 07:54:33;;;;;;;43.65;15.43;;;-3.00;99.90;;;;;;4949973;28;20032;-68
2022/01/25 07:56:59;;;;;;;44.80;15.93;;;-3.00;99.90;;;;;;4949388;29;20047;-70
2022/01/25 07:59:25;;;;;;;45.45;16.65;;;-2.90;99.90;;;;;;4949118;28;20027;-63
2022/01/25 08:01:52;;;;;;;42.92;15.55;;;-2.90;99.90;;;;;;4951462;28;20451;-65
2022/01/25 08:04:18;;;;;;;44.35;15.82;;;-2.80;99.90;;;;;;4945535;28;20039;-66
2022/01/25 08:06:44;;;;;;;47.78;15.75;;;-2.70;99.90;;;;;;4950203;28;20094;-66
2022/01/25 08:09:10;;;;;;;42.67;15.55;;;-2.60;99.90;;;;;;4949612;28;20047;-64
2022/01/25 08:11:36;;;;;;;44.47;16.00;;;-2.50;99.90;;;;;;4951468;29;20070;-65
2022/01/25 08:14:14;;;;;;;40.83;15.73;;;-2.40;99.90;;;;;;4950121;28;20031;-67
2022/01/25 08:16:42;;;;;;;43.00;15.93;;;-2.40;99.90;;;;;;4950647;29;20101;-64
2022/01/25 08:19:10;;;;;;;49.05;15.90;;;-2.30;99.90;;;;;;4947948;28;20082;-66
2022/01/25 08:21:37;;;;;;;47.00;15.73;;;-2.20;99.90;;;;;;4946959;28;20027;-66
2022/01/25 08:24:07;;;;;;;47.22;15.85;;;-2.10;99.90;;;;;;4947768;28;20115;-67
2022/01/25 08:26:32;;;;;;;44.53;16.50;;;-2.10;99.90;;;;;;4949313;29;20045;-66
2022/01/25 08:28:58;;;;;;;66.38;23.00;;;-2.00;99.90;;;;;;4949512;29;20043;-69
2022/01/25 08:31:24;;;;;;;64.05;22.90;;;-2.00;99.90;;;;;;4947642;28;20461;-65
2022/01/25 08:33:50;;;;;;;62.15;21.17;;;-1.80;99.90;;;;;;4955401;28;20035;-69
2022/01/25 08:36:16;;;;;;;58.05;20.60;;;-1.70;99.90;;;;;;4947286;28;20047;-67
2022/01/25 08:38:42;;;;;;;67.88;21.38;;;-1.70;99.90;;;;;;4949124;28;20061;-66
2022/01/25 08:41:08;;;;;;;83.53;27.10;;;-1.50;99.90;;;;;;4947236;28;20057;-67
2022/01/25 08:43:34;;;;;;;64.20;23.80;;;-1.40;99.90;;;;;;4949593;28;20486;-67
2022/01/25 08:46:00;;;;;;;63.97;23.30;;;-1.30;99.90;;;;;;4948795;28;20035;-71
2022/01/25 08:48:26;;;;;;;68.85;25.55;;;-1.20;99.90;;;;;;4947236;28;20102;-72
2022/01/25 08:50:52;;;;;;;64.00;23.02;;;-1.10;99.90;;;;;;4950840;28;20114;-70
2022/01/25 08:53:18;;;;;;;49.28;17.63;;;-1.10;99.90;;;;;;4954596;28;20031;-67
2022/01/25 08:55:43;;;;;;;61.45;20.85;;;-1.00;99.90;;;;;;4949928;28;20086;-68
2022/01/25 08:58:09;;;;;;;59.28;22.05;;;-0.80;99.90;;;;;;4949867;29;20075;-69
2022/01/25 09:00:35;;;;;;;48.63;18.33;;;-0.60;99.90;;;;;;4951212;28;20110;-66
2022/01/25 09:03:01;;;;;;;51.75;18.67;;;-0.60;99.90;;;;;;4949924;28;20107;-68
2022/01/25 09:05:27;;;;;;;49.55;17.85;;;-0.50;99.90;;;;;;4949553;28;20496;-68
2022/01/25 09:07:54;;;;;;;55.00;20.02;;;-0.30;99.90;;;;;;4950242;28;20095;-68
2022/01/25 09:10:19;;;;;;;55.75;19.95;;;-0.20;99.90;;;;;;4949042;28;20102;-70
2022/01/25 09:12:45;;;;;;;55.72;19.10;;;-0.20;99.90;;;;;;4953446;28;20436;-69
2022/01/25 09:15:11;;;;;;;48.88;19.02;;;-0.10;99.90;;;;;;4949194;28;20031;-69
2022/01/25 09:17:37;;;;;;;52.65;19.13;;;0.00;99.90;;;;;;4950069;28;20031;-70
2022/01/25 09:20:04;;;;;;;41.97;14.40;;;0.10;99.90;;;;;;4949888;28;20147;-70
2022/01/25 09:22:30;;;;;;;39.17;14.35;;;0.30;99.90;;;;;;4948613;28;20034;-68
2022/01/25 09:24:55;;;;;;;55.35;19.25;;;0.50;99.90;;;;;;4948929;29;20023;-68
2022/01/25 09:27:21;;;;;;;47.65;16.10;;;0.70;99.90;;;;;;4949228;28;20627;-66
2022/01/25 09:29:47;;;;;;;45.15;16.40;;;0.70;99.90;;;;;;4950121;28;20035;-67
2022/01/25 09:32:13;;;;;;;45.15;17.10;;;0.60;99.90;;;;;;4949099;28;20070;-69
2022/01/25 09:34:38;;;;;;;51.75;16.08;;;0.50;99.90;;;;;;4949375;28;20035;-67
2022/01/25 09:37:04;;;;;;;45.60;16.58;;;0.60;99.90;;;;;;4952302;28;20043;-70
2022/01/25 09:39:30;;;;;;;44.95;15.98;;;0.60;99.90;;;;;;4953547;28;20102;-69
2022/01/25 09:41:57;;;;;;;49.75;16.88;;;0.70;99.90;;;;;;4954471;28;20054;-66
2022/01/25 09:44:23;;;;;;;44.72;15.35;;;0.80;99.90;;;;;;4957210;28;20070;-69
2022/01/25 09:46:53;;;;;;;46.75;15.25;;;1.00;99.90;;;;;;4952947;28;20488;-66
2022/01/25 09:49:19;;;;;;;38.70;12.55;;;1.20;99.90;;;;;;4952438;28;20116;-67
2022/01/25 09:51:47;;;;;;;49.05;15.82;;;1.40;99.90;;;;;;4956221;28;20035;-68
2022/01/25 09:54:13;;;;;;;42.90;15.75;;;1.40;99.90;;;;;;4952142;28;20114;-67
2022/01/25 09:56:39;;;;;;;39.10;16.02;;;1.60;99.90;;;;;;4954117;29;20167;-68
2022/01/25 09:59:04;;;;;;;46.78;16.02;;;1.80;99.90;;;;;;4957055;28;20085;-69
2022/01/25 10:01:32;;;;;;;46.92;16.40;;;1.90;99.90;;;;;;4957779;28;20031;-68
2022/01/25 10:04:00;;;;;;;43.35;16.15;;;1.90;99.90;;;;;;4951367;28;20111;-69
2022/01/25 10:06:31;;;;;;;42.03;15.60;;;2.10;99.90;;;;;;4952526;28;20558;-69
2022/01/25 10:08:58;;;;;;;48.22;16.70;;;2.20;99.90;;;;;;4957929;28;20070;-70
2022/01/25 10:11:25;;;;;;;42.17;15.38;;;2.40;99.90;;;;;;4952407;28;20650;-69
2022/01/25 10:13:58;;;;;;;44.67;15.63;;;2.40;99.90;;;;;;4952108;28;20070;-70
2022/01/25 10:16:35;;;;;;;40.70;14.50;;;2.40;99.90;;;;;;4952152;28;20043;-69
2022/01/25 10:19:10;;;;;;;51.92;16.02;;;2.50;99.90;;;;;;4953362;28;20042;-72
2022/01/25 10:21:42;;;;;;;44.90;16.40;;;2.50;99.90;;;;;;4951130;28;20035;-70
2022/01/25 10:24:24;;;;;;;46.40;15.60;;;2.60;99.90;;;;;;4952977;28;20039;-71
2022/01/25 10:26:52;;;;;;;40.03;15.40;;;2.60;99.90;;;;;;4952633;28;20126;-70
2022/01/25 10:29:23;;;;;;;45.22;16.10;;;2.80;99.90;;;;;;4950205;28;20351;-69
2022/01/25 10:31:57;;;;;;;47.33;17.25;;;2.90;99.90;;;;;;4953694;28;20046;-68
2022/01/25 10:34:48;;;;;;;36.65;14.63;;;3.10;99.90;;;;;;4958079;28;20042;-68
2022/01/25 10:37:26;;;;;;;41.08;15.35;;;3.00;99.90;;;;;;4951482;28;20547;-71
2022/01/25 10:39:53;;;;;;;49.20;15.57;;;3.00;99.90;;;;;;4956498;28;20031;-72
2022/01/25 10:42:28;;;;;;;44.05;15.93;;;3.10;99.90;;;;;;4950974;28;20381;-75
2022/01/25 10:44:58;;;;;;;43.40;15.20;;;3.20;99.90;;;;;;4950959;28;20030;-73
2022/01/25 10:47:44;;;;;;;44.35;14.80;;;3.50;99.90;;;;;;4951592;28;20039;-73
2022/01/25 10:50:17;;;;;;;40.63;15.45;;;3.50;99.90;;;;;;4947932;28;20082;-70
2022/01/25 10:52:45;;;;;;;43.03;16.48;;;3.60;99.90;;;;;;4952935;28;20066;-73
2022/01/25 10:55:12;;;;;;;42.15;15.55;;;3.70;99.90;;;;;;4952897;28;20035;-69
2022/01/25 10:57:38;;;;;;;38.00;15.27;;;3.90;99.90;;;;;;4952732;28;20031;-71
2022/01/25 11:00:10;;;;;;;38.28;14.23;;;4.00;99.90;;;;;;4956146;28;20541;-70
2022/01/25 11:02:56;;;;;;;40.10;15.40;;;4.00;99.90;;;;;;4951777;28;20417;-70
2022/01/25 11:05:22;;;;;;;41.97;15.77;;;3.90;99.90;;;;;;4949180;28;20045;-72
2022/01/25 11:07:47;;;;;;;43.65;15.48;;;4.10;99.90;;;;;;4950953;28;20051;-72
2022/01/25 11:10:17;;;;;;;39.20;15.27;;;4.30;99.90;;;;;;4950333;28;20031;-72
2022/01/25 11:12:58;;;;;;;39.58;16.33;;;4.60;99.90;;;;;;4951272;28;20027;-71
2022/01/25 11:15:24;;;;;;;40.05;15.93;;;4.70;99.90;;;;;;4949289;29;20066;-72
2022/01/25 11:17:50;;;;;;;40.58;16.23;;;4.50;99.90;;;;;;4951689;28;20089;-72
2022/01/25 11:20:16;;;;;;;46.13;16.50;;;4.60;99.90;;;;;;4950398;28;20720;-73
2022/01/25 11:22:43;;;;;;;43.42;16.15;;;4.70;99.90;;;;;;4950079;29;20046;-73
2022/01/25 11:25:09;;;;;;;44.53;17.30;;;5.00;99.90;;;;;;4956323;28;20027;-75
2022/01/25 11:27:39;;;;;;;43.83;16.23;;;5.20;99.90;;;;;;4952311;28;20039;-71
2022/01/25 11:30:11;;;;;;;40.87;16.43;;;5.20;99.90;;;;;;4948324;28;20163;-68
2022/01/25 11:32:42;;;;;;;43.03;17.67;;;5.20;99.90;;;;;;4949658;28;20278;-72
2022/01/25 11:35:11;;;;;;;39.35;16.25;;;5.30;99.90;;;;;;4950751;29;20027;-70
2022/01/25 11:37:45;;;;;;;38.20;16.02;;;5.10;99.90;;;;;;4951285;28;20047;-72
2022/01/25 11:40:26;;;;;;;40.60;16.27;;;5.30;99.90;;;;;;4951799;28;20031;-70
2022/01/25 11:43:14;;;;;;;44.42;17.58;;;5.20;99.90;;;;;;4952680;29;20039;-70
2022/01/25 11:45:43;;;;;;;43.60;16.45;;;5.40;99.90;;;;;;4952414;28;20110;-71
2022/01/25 11:48:09;;;;;;;43.70;17.23;;;5.60;99.90;;;;;;4949877;28;20027;-71
2022/01/25 11:50:38;;;;;;;40.70;17.30;;;5.60;99.90;;;;;;4951824;28;20023;-70
2022/01/25 11:53:10;;;;;;;41.05;16.75;;;5.50;99.90;;;;;;4951841;28;20055;-71
2022/01/25 11:55:39;;;;;;;39.35;16.65;;;5.60;99.90;;;;;;4945005;28;20043;-70
2022/01/25 11:58:08;;;;;;;43.85;16.77;;;5.70;99.90;;;;;;4951594;28;20460;-69
2022/01/25 12:00:45;;;;;;;40.88;16.50;;;5.70;99.90;;;;;;4950375;28;21046;-70
2022/01/25 12:03:26;;;;;;;43.58;17.33;;;5.70;99.90;;;;;;4948206;29;20037;-72
2022/01/25 12:05:56;;;;;;;38.00;15.23;;;5.60;99.90;;;;;;4945152;28;20578;-69
2022/01/25 12:08:37;;;;;;;39.53;15.82;;;5.70;99.90;;;;;;4948578;28;20051;-69
2022/01/25 12:11:24;;;;;;;39.45;16.50;;;5.90;99.90;;;;;;4952283;28;20114;-67
2022/01/25 12:14:09;;;;;;;39.45;16.23;;;6.40;99.90;;;;;;4953031;28;20032;-68
2022/01/25 12:16:43;;;;;;;40.42;16.58;;;6.70;99.90;;;;;;4950141;28;20031;-66
2022/01/25 12:19:11;;;;;;;38.05;16.25;;;7.10;99.90;;;;;;4950522;28;20035;-68
2022/01/25 12:21:46;;;;;;;37.35;15.50;;;7.30;99.90;;;;;;4949377;28;20076;-67
2022/01/25 12:24:33;;;;;;;37.60;15.95;;;7.50;99.90;;;;;;4951181;28;20038;-72
2022/01/25 12:27:32;;;;;;;38.67;15.73;;;7.10;99.90;;;;;;4943810;28;20113;-71
2022/01/25 12:29:58;;;;;;;42.15;16.35;;;7.10;99.90;;;;;;4947077;28;20436;-70
2022/01/25 12:33:00;;;;;;;43.65;17.08;;;7.00;99.90;;;;;;4950151;28;20082;-68
2022/01/25 12:35:42;;;;;;;36.67;15.57;;;6.90;99.90;;;;;;4946200;28;20047;-67
2022/01/25 12:38:11;;;;;;;45.08;16.35;;;7.30;99.90;;;;;;4948932;28;20543;-68
2022/01/25 12:40:48;;;;;;;38.00;15.77;;;7.50;99.90;;;;;;4948497;29;20122;-67
2022/01/25 12:43:26;;;;;;;40.53;16.85;;;7.40;99.90;;;;;;4944412;29;20043;-70
2022/01/25 12:45:56;;;;;;;39.70;15.85;;;7.50;99.90;;;;;;4950068;28;20042;-70
2022/01/25 12:48:28;;;;;;;41.17;15.68;;;7.80;99.90;;;;;;4950023;28;20513;-69
2022/01/25 12:50:56;;;;;;;40.30;16.05;;;7.90;99.90;;;;;;4950308;28;20495;-70
2022/01/25 12:53:25;;;;;;;38.03;15.50;;;8.00;99.90;;;;;;4949566;28;20102;-71
2022/01/25 12:55:53;;;;;;;36.88;16.30;;;8.00;99.90;;;;;;4949654;28;20035;-69
2022/01/25 12:58:21;;;;;;;34.97;15.10;;;7.90;99.90;;;;;;4947763;28;20035;-65
2022/01/25 13:00:50;;;;;;;40.13;16.85;;;7.90;99.90;;;;;;4950035;28;20062;-68
2022/01/25 13:03:21;;;;;;;34.60;15.30;;;7.80;99.90;;;;;;4952455;28;20460;-68
2022/01/25 13:05:59;;;;;;;34.80;14.88;;;7.80;99.90;;;;;;4950349;28;20039;-70
2022/01/25 13:08:26;;;;;;;37.03;15.63;;;7.90;99.90;;;;;;4948754;28;20047;-69
2022/01/25 13:10:56;;;;;;;34.40;14.63;;;8.00;99.90;;;;;;4950139;28;20035;-71
2022/01/25 13:13:43;;;;;;;34.55;13.70;;;8.00;99.90;;;;;;4952313;28;20042;-69
2022/01/25 13:16:09;;;;;;;37.53;15.57;;;7.60;99.90;;;;;;4950609;28;20562;-68
2022/01/25 13:18:40;;;;;;;35.67;14.57;;;7.20;99.90;;;;;;4954658;28;20106;-69
2022/01/25 13:21:08;;;;;;;35.15;14.63;;;7.10;99.90;;;;;;4951164;28;20039;-69
2022/01/25 13:23:35;;;;;;;40.85;15.98;;;7.10;99.90;;;;;;4947278;28;20030;-67
2022/01/25 13:26:11;;;;;;;40.30;15.88;;;7.30;99.90;;;;;;4948752;28;20043;-69
2022/01/25 13:28:54;;;;;;;34.60;14.45;;;7.70;99.90;;;;;;4942978;28;20028;-67
2022/01/25 13:31:22;;;;;;;36.35;14.52;;;7.90;99.90;;;;;;4948751;28;20027;-69
2022/01/25 13:33:50;;;;;;;34.17;14.73;;;7.80;99.90;;;;;;4949437;28;20032;-69
2022/01/25 13:36:20;;;;;;;36.28;14.73;;;8.00;99.90;;;;;;4961789;28;20403;-70
2022/01/25 13:38:47;;;;;;;33.22;14.63;;;8.20;99.90;;;;;;4952521;28;20035;-68
2022/01/25 13:46:38;;;;;;;34.70;14.75;;;8.50;99.90;;;;;;4946206;29;20043;-67
2022/01/25 13:49:04;;;;;;;;;;;8.40;99.90;;;;;;4952456;28;20475;-68
2022/01/25 13:51:53;;;;;;;33.28;14.30;;;8.60;99.90;;;;;;4947567;28;19914;-67
2022/01/25 13:54:22;;;;;;;33.15;14.07;;;8.80;99.90;;;;;;4948908;28;20019;-70
2022/01/25 13:56:48;;;;;;;30.58;13.77;;;9.00;99.90;;;;;;4948611;28;20174;-66
2022/01/25 13:59:15;;;;;;;35.35;15.20;;;9.00;99.90;;;;;;4949986;29;20098;-68
2022/01/25 14:01:42;;;;;;;34.50;13.73;;;9.10;99.90;;;;;;4948574;28;20530;-68
2022/01/25 14:04:33;;;;;;;37.30;15.35;;;9.10;99.90;;;;;;4948876;28;20082;-67
2022/01/25 14:07:00;;;;;;;;;;;8.90;99.90;;;;;;4935834;28;20447;-68
2022/01/25 14:09:34;;;;;;;33.55;14.68;;;8.70;99.90;;;;;;4949880;28;20382;-68
2022/01/25 14:25:33;;;;;;;36.58;15.13;;;8.40;99.90;;;;;;4952762;28;20819;-68
2022/01/25 14:28:03;;;;;;;36.63;15.10;;;8.40;99.90;;;;;;4952792;28;20169;-67
2022/01/25 14:30:34;;;;;;;33.70;14.85;;;8.40;99.90;;;;;;4951349;28;20476;-67
2022/01/25 14:33:04;;;;;;;41.17;15.55;;;8.40;99.90;;;;;;4953034;28;20102;-67
2022/01/25 14:35:32;;;;;;;36.55;15.85;;;8.10;99.90;;;;;;4952241;28;20039;-68
2022/01/25 14:38:00;;;;;;;35.25;15.02;;;7.80;99.90;;;;;;4951450;29;20468;-67
2022/01/25 14:40:25;;;;;;;38.53;15.70;;;7.80;99.90;;;;;;4952020;28;20031;-67
2022/01/25 14:42:53;;;;;;;38.38;16.00;;;7.80;99.90;;;;;;4953025;28;20035;-68
2022/01/25 14:45:22;;;;;;;37.92;16.20;;;8.00;99.90;;;;;;4952927;28;20049;-69